Time;durP1;ratioP1;P1;durP2;ratioP2;P2;SDS_P1;SDS_P2;PMS_P1;PMS_P2;Temp;Humidity;BMP_temperature;BMP_pressure;BME280_temperature;BME280_humidity;BME280_pressure;Samples;Min_cycle;Max_cycle;Signal;HPM_P1;HPM_P2
2023/05/25 00:00:38;;;;;;;13.97;6.93;;;12.40;92.90;;;;;;5092403;28;20934;-68
2023/05/25 00:03:07;;;;;;;13.83;7.00;;;12.40;93.00;;;;;;5091157;28;20484;-68
2023/05/25 00:05:34;;;;;;;9.13;6.87;;;12.40;93.10;;;;;;5093834;28;20442;-68
2023/05/25 00:08:01;;;;;;;8.67;6.33;;;12.40;93.20;;;;;;5096524;28;20454;-68
2023/05/25 00:10:28;;;;;;;11.10;6.60;;;12.40;93.20;;;;;;5095972;28;20445;-68
2023/05/25 00:12:55;;;;;;;11.70;7.90;;;12.40;93.10;;;;;;5095809;28;20431;-68
2023/05/25 00:15:24;;;;;;;10.43;6.57;;;12.30;92.90;;;;;;5096053;28;20443;-68
2023/05/25 00:17:54;;;;;;;10.07;6.17;;;12.30;93.10;;;;;;5095910;28;20467;-68
2023/05/25 00:20:21;;;;;;;11.40;6.07;;;12.40;93.20;;;;;;5096089;28;20439;-68
2023/05/25 00:22:48;;;;;;;10.00;7.00;;;12.30;93.30;;;;;;5095756;28;20446;-68
2023/05/25 00:25:15;;;;;;;13.83;7.07;;;12.40;93.20;;;;;;5096207;28;20512;-68
2023/05/25 00:27:42;;;;;;;7.70;6.00;;;12.40;93.30;;;;;;5095975;28;20929;-68
2023/05/25 00:30:10;;;;;;;8.03;5.97;;;12.40;93.00;;;;;;5095610;28;20490;-68
2023/05/25 00:32:38;;;;;;;8.90;6.27;;;12.40;92.90;;;;;;5095815;28;20439;-68
2023/05/25 00:35:06;;;;;;;9.87;5.70;;;12.30;92.80;;;;;;5095585;28;20439;-68
2023/05/25 00:37:33;;;;;;;8.00;4.57;;;12.30;92.70;;;;;;5076005;28;20427;-68
2023/05/25 00:40:00;;;;;;;15.60;5.33;;;12.20;92.40;;;;;;5075724;28;20485;-68
2023/05/25 00:42:28;;;;;;;7.33;4.93;;;12.20;92.60;;;;;;5094659;28;20789;-68
2023/05/25 00:44:56;;;;;;;11.30;5.63;;;12.10;92.40;;;;;;5095895;28;20553;-67
2023/05/25 00:47:23;;;;;;;11.50;5.10;;;12.10;92.20;;;;;;5095424;28;20427;-68
2023/05/25 00:49:52;;;;;;;14.57;5.90;;;12.00;92.00;;;;;;5095631;28;20483;-68
2023/05/25 00:52:19;;;;;;;9.40;4.93;;;12.00;92.10;;;;;;5094679;28;20837;-68
2023/05/25 00:54:52;;;;;;;9.30;6.20;;;12.00;92.00;;;;;;5093833;28;20484;-68
2023/05/25 00:57:23;;;;;;;9.43;5.27;;;11.90;91.90;;;;;;5094672;28;20193;-68
2023/05/25 00:59:54;;;;;;;12.02;6.20;;;11.80;92.00;;;;;;5095377;28;20496;-68
2023/05/25 01:02:23;;;;;;;11.30;6.40;;;11.80;92.10;;;;;;5095570;28;20197;-68
2023/05/25 01:04:54;;;;;;;11.32;5.72;;;11.70;92.10;;;;;;5095488;28;20443;-68
2023/05/25 01:07:24;;;;;;;8.65;5.20;;;11.70;92.20;;;;;;5094944;28;20276;-69
2023/05/25 01:09:58;;;;;;;10.13;6.27;;;11.60;92.40;;;;;;5095148;28;20265;-68
2023/05/25 01:12:27;;;;;;;19.90;5.90;;;11.60;92.90;;;;;;5095066;28;20483;-68
2023/05/25 01:14:57;;;;;;;20.10;7.20;;;11.50;92.60;;;;;;5095436;28;20431;-68
2023/05/25 01:17:25;;;;;;;11.00;6.45;;;11.50;92.70;;;;;;5094515;28;20871;-68
2023/05/25 01:19:52;;;;;;;15.23;7.43;;;11.50;92.90;;;;;;5094737;28;20188;-68
2023/05/25 01:22:28;;;;;;;10.43;5.57;;;11.50;93.10;;;;;;5094577;28;20443;-68
2023/05/25 01:25:01;;;;;;;10.33;6.50;;;11.50;93.40;;;;;;5095158;28;20546;-68
2023/05/25 01:27:37;;;;;;;10.75;5.35;;;11.50;93.70;;;;;;5094751;28;20468;-68
2023/05/25 01:30:10;;;;;;;10.27;6.93;;;11.50;93.90;;;;;;5095052;28;20267;-68
2023/05/25 01:32:38;;;;;;;11.93;6.20;;;11.50;93.70;;;;;;5094471;28;20562;-68
2023/05/25 01:35:06;;;;;;;9.40;5.80;;;11.40;93.60;;;;;;5095357;28;20485;-68
2023/05/25 01:37:36;;;;;;;11.20;5.30;;;11.40;93.60;;;;;;5094440;28;20447;-68
2023/05/25 01:40:04;;;;;;;14.07;7.00;;;11.40;93.50;;;;;;5074435;28;20428;-67
2023/05/25 01:42:31;;;;;;;17.10;6.25;;;11.40;93.70;;;;;;5090814;28;20435;-68
2023/05/25 01:44:59;;;;;;;7.87;5.10;;;11.30;93.70;;;;;;5094912;28;20189;-68
2023/05/25 01:47:40;;;;;;;8.00;6.50;;;11.30;93.80;;;;;;5094211;28;20504;-68
2023/05/25 01:50:15;;;;;;;8.97;5.53;;;11.30;94.00;;;;;;5094524;28;20212;-68
2023/05/25 01:52:47;;;;;;;12.57;6.03;;;11.30;94.10;;;;;;5093945;28;20441;-68
2023/05/25 01:55:17;;;;;;;11.93;6.20;;;11.30;94.30;;;;;;5094535;28;20442;-68
2023/05/25 01:57:50;;;;;;;11.18;6.65;;;11.30;94.70;;;;;;5094218;28;20632;-68
2023/05/25 02:00:20;;;;;;;13.03;6.77;;;11.40;94.80;;;;;;5094510;28;20555;-68
2023/05/25 02:02:49;;;;;;;12.90;6.70;;;11.40;95.10;;;;;;5093861;28;20439;-68
2023/05/25 02:05:18;;;;;;;14.50;6.53;;;11.50;95.20;;;;;;5094102;28;20439;-68
2023/05/25 02:07:47;;;;;;;8.40;6.97;;;11.60;95.20;;;;;;5093696;28;20442;-68
2023/05/25 02:10:14;;;;;;;9.13;6.00;;;11.60;95.20;;;;;;5094008;28;20566;-68
2023/05/25 02:12:41;;;;;;;9.70;6.37;;;11.60;95.30;;;;;;5093570;28;20493;-68
2023/05/25 02:15:10;;;;;;;8.53;6.27;;;11.70;95.30;;;;;;5093891;28;20434;-68
2023/05/25 02:17:37;;;;;;;11.80;7.07;;;11.80;95.40;;;;;;5093622;28;20467;-68
2023/05/25 02:20:07;;;;;;;16.70;6.80;;;11.80;95.40;;;;;;5094030;28;20528;-68
2023/05/25 02:22:34;;;;;;;11.17;6.83;;;11.80;95.00;;;;;;5093552;28;20910;-69
2023/05/25 02:25:02;;;;;;;11.90;7.72;;;11.70;94.80;;;;;;5094123;28;20443;-68
2023/05/25 02:27:29;;;;;;;9.88;6.90;;;11.80;94.90;;;;;;5092717;28;20182;-68
2023/05/25 02:29:56;;;;;;;11.07;6.17;;;11.80;94.80;;;;;;5093787;28;20224;-68
2023/05/25 02:32:23;;;;;;;9.33;5.10;;;11.80;94.80;;;;;;5092732;28;20442;-68
2023/05/25 02:34:51;;;;;;;8.80;6.60;;;11.80;94.80;;;;;;5093784;28;20516;-68
2023/05/25 02:37:18;;;;;;;14.00;7.23;;;11.90;95.10;;;;;;5093228;28;20478;-68
2023/05/25 02:39:45;;;;;;;9.10;6.57;;;11.90;95.00;;;;;;5093701;28;20436;-67
2023/05/25 02:42:13;;;;;;;11.83;6.63;;;11.80;94.90;;;;;;5092899;28;20436;-68
2023/05/25 02:44:41;;;;;;;10.50;6.43;;;11.90;95.20;;;;;;5093785;28;20435;-68
2023/05/25 02:47:08;;;;;;;8.80;6.13;;;11.90;95.30;;;;;;5092899;28;20439;-68
2023/05/25 02:49:35;;;;;;;11.57;6.70;;;11.90;95.40;;;;;;5093066;28;20471;-68
2023/05/25 02:52:02;;;;;;;15.97;8.87;;;11.80;95.40;;;;;;5092954;28;20432;-68
2023/05/25 02:54:29;;;;;;;9.10;7.77;;;11.80;95.80;;;;;;5093429;28;20431;-68
2023/05/25 02:56:57;;;;;;;12.57;8.10;;;11.80;95.90;;;;;;5092974;28;20519;-68
2023/05/25 02:59:25;;;;;;;10.83;7.87;;;11.90;96.20;;;;;;5093270;28;20491;-68
2023/05/25 03:01:53;;;;;;;10.23;7.43;;;11.90;96.20;;;;;;5092621;28;20463;-67
2023/05/25 03:04:20;;;;;;;11.67;7.97;;;12.00;96.30;;;;;;5093128;28;20439;-68
2023/05/25 03:06:47;;;;;;;9.93;6.90;;;12.00;96.20;;;;;;5092935;28;20522;-68
2023/05/25 03:09:15;;;;;;;16.17;8.63;;;12.00;96.00;;;;;;5093004;28;20925;-68
2023/05/25 03:11:42;;;;;;;9.87;6.70;;;12.10;95.80;;;;;;5092423;28;20439;-68
2023/05/25 03:14:09;;;;;;;14.20;6.90;;;12.10;95.60;;;;;;5092980;28;20447;-68
2023/05/25 03:16:38;;;;;;;13.20;8.67;;;12.10;95.50;;;;;;5092690;28;20961;-68
2023/05/25 03:19:06;;;;;;;9.50;6.47;;;12.10;95.40;;;;;;5092951;28;20848;-68
2023/05/25 03:21:33;;;;;;;10.80;7.23;;;12.10;95.40;;;;;;5092057;28;20435;-68
2023/05/25 03:24:00;;;;;;;10.70;6.97;;;12.20;95.50;;;;;;5093351;28;20439;-68
2023/05/25 03:26:27;;;;;;;16.40;8.20;;;12.20;95.50;;;;;;5092941;28;20458;-68
2023/05/25 03:28:54;;;;;;;7.87;6.67;;;12.20;95.50;;;;;;5092888;28;20435;-68
2023/05/25 03:31:21;;;;;;;10.60;7.50;;;12.20;95.70;;;;;;5091906;28;20621;-68
2023/05/25 03:33:50;;;;;;;10.70;7.57;;;12.20;95.70;;;;;;5092775;28;20446;-68
2023/05/25 03:36:17;;;;;;;13.67;7.17;;;12.20;95.90;;;;;;5092334;28;20504;-68
2023/05/25 03:38:44;;;;;;;13.60;7.60;;;12.30;96.00;;;;;;5092528;28;20438;-68
2023/05/25 03:41:11;;;;;;;14.20;8.27;;;12.30;96.00;;;;;;5091920;28;20443;-68
2023/05/25 03:43:38;;;;;;;12.80;7.90;;;12.30;96.10;;;;;;5092671;28;20484;-68
2023/05/25 03:46:05;;;;;;;10.27;7.60;;;12.40;96.00;;;;;;5092118;28;20446;-69
2023/05/25 03:48:32;;;;;;;13.00;7.30;;;12.40;95.90;;;;;;5092489;28;20438;-68
2023/05/25 03:51:01;;;;;;;12.43;7.63;;;12.40;96.00;;;;;;5091753;28;20988;-68
2023/05/25 03:53:28;;;;;;;12.83;8.20;;;12.40;96.00;;;;;;5092400;28;20435;-68
2023/05/25 03:55:55;;;;;;;12.33;7.53;;;12.40;96.20;;;;;;5091970;28;20859;-68
2023/05/25 03:58:22;;;;;;;14.70;8.03;;;12.50;96.40;;;;;;5092509;28;20439;-68
2023/05/25 04:00:50;;;;;;;16.40;8.80;;;12.50;96.30;;;;;;5091734;28;20442;-68
2023/05/25 04:03:17;;;;;;;10.37;7.27;;;12.50;96.70;;;;;;5092183;28;20499;-68
2023/05/25 04:05:44;;;;;;;13.03;7.40;;;12.50;96.30;;;;;;5092198;28;20431;-68
2023/05/25 04:08:16;;;;;;;13.17;8.20;;;12.60;96.30;;;;;;5092400;28;20520;-68
2023/05/25 04:10:44;;;;;;;12.90;8.37;;;12.60;96.10;;;;;;5091513;28;20501;-68
2023/05/25 04:13:11;;;;;;;10.20;7.47;;;12.60;96.10;;;;;;5092305;28;20447;-68
2023/05/25 04:15:38;;;;;;;14.10;7.70;;;12.70;96.30;;;;;;5091957;28;20455;-67
2023/05/25 04:18:06;;;;;;;11.50;8.27;;;12.70;96.20;;;;;;5092500;28;21042;-68
2023/05/25 04:20:33;;;;;;;19.90;8.17;;;12.80;96.10;;;;;;5091713;28;20437;-67
2023/05/25 04:23:00;;;;;;;20.23;9.23;;;12.80;96.00;;;;;;5092371;28;20492;-68
2023/05/25 04:25:30;;;;;;;13.83;6.87;;;12.80;95.50;;;;;;5092023;28;20435;-68
2023/05/25 04:27:58;;;;;;;13.30;8.03;;;12.80;95.50;;;;;;5092520;28;20431;-68
2023/05/25 04:30:25;;;;;;;13.30;8.20;;;12.90;95.70;;;;;;5091437;28;20520;-68
2023/05/25 04:32:53;;;;;;;10.00;7.47;;;12.90;95.60;;;;;;5092059;28;20459;-68
2023/05/25 04:35:20;;;;;;;10.10;7.47;;;12.90;95.60;;;;;;5092139;28;20443;-68
2023/05/25 04:37:48;;;;;;;10.10;7.07;;;13.00;95.60;;;;;;5091443;28;20538;-68
2023/05/25 04:40:15;;;;;;;9.00;7.70;;;13.00;95.70;;;;;;5092051;28;20466;-68
2023/05/25 04:42:43;;;;;;;11.90;7.67;;;13.00;95.70;;;;;;5091473;28;20443;-68
2023/05/25 04:45:15;;;;;;;20.47;8.77;;;13.00;95.70;;;;;;5091617;28;20522;-69
2023/05/25 04:47:44;;;;;;;13.47;8.20;;;13.10;95.70;;;;;;5092009;28;20435;-68
2023/05/25 04:50:12;;;;;;;10.40;8.03;;;13.10;95.50;;;;;;5090456;28;20475;-68
2023/05/25 04:52:39;;;;;;;13.43;8.47;;;13.10;95.70;;;;;;5095356;28;20941;-68
2023/05/25 04:55:06;;;;;;;16.17;8.47;;;13.10;95.70;;;;;;5095443;28;20484;-68
2023/05/25 04:57:33;;;;;;;14.97;8.07;;;13.20;95.70;;;;;;5093439;28;20430;-68
2023/05/25 05:00:02;;;;;;;11.33;7.77;;;13.20;95.40;;;;;;5092002;28;20922;-68
2023/05/25 05:02:29;;;;;;;14.00;8.17;;;13.20;95.10;;;;;;5093006;28;20993;-68
2023/05/25 05:04:56;;;;;;;10.40;7.70;;;13.30;95.40;;;;;;5092478;28;20435;-68
2023/05/25 05:07:23;;;;;;;10.90;7.77;;;13.30;95.40;;;;;;5092448;28;20439;-68
2023/05/25 05:09:50;;;;;;;12.60;8.27;;;13.40;95.70;;;;;;5091338;28;20504;-68
2023/05/25 05:12:21;;;;;;;14.37;8.20;;;13.40;95.60;;;;;;5088209;28;20985;-68
2023/05/25 05:14:49;;;;;;;14.23;8.30;;;13.40;95.40;;;;;;5078995;28;20516;-68
2023/05/25 05:17:17;;;;;;;11.50;7.97;;;13.50;95.30;;;;;;5074718;28;20474;-68
2023/05/25 05:19:44;;;;;;;19.30;8.30;;;13.50;95.10;;;;;;5086247;28;20439;-68
2023/05/25 05:22:14;;;;;;;12.70;8.37;;;13.50;94.70;;;;;;5090810;28;20435;-68
2023/05/25 05:24:41;;;;;;;15.13;9.10;;;13.50;94.70;;;;;;5091706;28;20471;-68
2023/05/25 05:27:09;;;;;;;12.77;8.60;;;13.50;94.60;;;;;;5092294;28;20504;-68
2023/05/25 05:29:36;;;;;;;12.53;8.30;;;13.50;94.60;;;;;;5092165;28;20458;-68
2023/05/25 05:32:03;;;;;;;12.43;8.43;;;13.50;94.70;;;;;;5092136;28;20604;-68
2023/05/25 05:34:32;;;;;;;10.97;8.63;;;13.50;94.90;;;;;;5091629;28;20475;-68
2023/05/25 05:36:59;;;;;;;12.10;9.40;;;13.50;95.20;;;;;;5092218;28;20462;-69
2023/05/25 05:39:27;;;;;;;16.10;9.07;;;13.60;95.40;;;;;;5084310;28;20802;-68
2023/05/25 05:41:54;;;;;;;18.07;8.90;;;13.70;95.20;;;;;;5088702;28;20435;-68
2023/05/25 05:44:22;;;;;;;13.07;10.03;;;13.80;94.80;;;;;;5080521;28;20435;-68
2023/05/25 05:46:49;;;;;;;14.20;8.50;;;13.80;95.00;;;;;;5091830;28;20448;-68
2023/05/25 05:49:16;;;;;;;12.80;10.50;;;14.00;95.00;;;;;;5090700;28;20438;-68
2023/05/25 05:51:48;;;;;;;12.60;9.03;;;14.10;95.00;;;;;;5087452;28;20528;-69
2023/05/25 05:54:15;;;;;;;14.73;8.53;;;14.30;94.90;;;;;;5073108;28;20443;-69
2023/05/25 05:56:42;;;;;;;11.47;7.97;;;14.50;94.70;;;;;;5080641;28;20438;-68
2023/05/25 05:59:10;;;;;;;15.03;8.70;;;14.60;94.60;;;;;;5071054;28;20494;-68
2023/05/25 06:01:41;;;;;;;13.20;8.17;;;14.70;94.50;;;;;;5079774;28;20488;-68
2023/05/25 06:04:08;;;;;;;13.00;8.80;;;14.80;94.60;;;;;;5081330;28;20538;-68
2023/05/25 06:06:37;;;;;;;11.80;8.27;;;14.90;94.30;;;;;;5085217;28;20454;-68
2023/05/25 06:09:06;;;;;;;11.13;8.13;;;15.10;94.50;;;;;;5074942;28;20440;-68
2023/05/25 06:11:34;;;;;;;12.20;8.03;;;15.30;94.20;;;;;;5085097;28;20479;-68
2023/05/25 06:14:02;;;;;;;10.53;8.37;;;15.60;93.80;;;;;;5073939;28;20785;-68
2023/05/25 06:16:29;;;;;;;12.20;8.73;;;15.80;93.30;;;;;;5076918;28;20545;-69
2023/05/25 06:18:55;;;;;;;9.20;7.17;;;15.90;93.40;;;;;;5077094;28;20436;-68
2023/05/25 06:21:22;;;;;;;10.63;7.23;;;16.10;93.30;;;;;;5075205;28;20897;-69
2023/05/25 06:23:49;;;;;;;8.90;7.10;;;16.40;92.60;;;;;;5090786;28;20435;-69
2023/05/25 06:26:18;;;;;;;8.97;6.87;;;16.50;91.70;;;;;;5089668;28;20509;-69
2023/05/25 06:28:49;;;;;;;10.13;6.77;;;16.50;90.90;;;;;;5086859;28;20443;-69
2023/05/25 06:31:17;;;;;;;9.57;6.57;;;16.50;91.00;;;;;;5083665;28;20494;-68
2023/05/25 06:33:44;;;;;;;7.50;6.50;;;16.60;90.40;;;;;;5082020;28;20918;-68
2023/05/25 06:36:12;;;;;;;7.83;6.37;;;16.70;90.70;;;;;;5086374;28;20496;-68
2023/05/25 06:38:39;;;;;;;8.27;6.53;;;17.00;90.50;;;;;;5071893;28;20505;-68
2023/05/25 06:41:08;;;;;;;7.13;5.57;;;17.20;90.00;;;;;;5074951;28;20906;-68
2023/05/25 06:43:36;;;;;;;6.77;5.40;;;17.40;87.90;;;;;;5090225;28;20845;-69
2023/05/25 06:46:05;;;;;;;8.87;6.00;;;17.40;87.00;;;;;;5088590;28;20434;-68
2023/05/25 06:48:32;;;;;;;8.30;5.73;;;17.40;84.30;;;;;;5091355;28;20930;-69
2023/05/25 06:50:59;;;;;;;7.03;5.30;;;17.40;83.40;;;;;;5090672;28;20533;-68
2023/05/25 06:53:26;;;;;;;6.80;4.90;;;17.40;83.90;;;;;;5090526;28;20492;-68
2023/05/25 06:55:53;;;;;;;6.87;5.00;;;17.40;85.20;;;;;;5091031;28;20439;-68
2023/05/25 06:58:20;;;;;;;8.07;4.60;;;17.50;83.90;;;;;;5090941;28;20474;-69
2023/05/25 07:00:48;;;;;;;5.77;4.47;;;17.40;83.00;;;;;;5090874;28;20466;-68
2023/05/25 07:03:15;;;;;;;6.33;4.87;;;17.40;83.20;;;;;;5090272;28;20474;-69
2023/05/25 07:05:42;;;;;;;6.73;4.90;;;17.40;83.30;;;;;;5090826;28;20938;-68
2023/05/25 07:08:09;;;;;;;5.60;4.10;;;17.50;83.00;;;;;;5091139;28;20477;-68
2023/05/25 07:10:36;;;;;;;7.37;4.97;;;17.60;83.30;;;;;;5090957;28;20467;-68
2023/05/25 07:13:03;;;;;;;7.20;5.17;;;17.60;83.50;;;;;;5089781;28;20469;-68
2023/05/25 07:15:30;;;;;;;7.73;5.00;;;17.70;83.90;;;;;;5090575;28;20471;-68
2023/05/25 07:17:58;;;;;;;7.47;5.10;;;17.60;82.80;;;;;;5090010;28;20507;-69
2023/05/25 07:20:30;;;;;;;8.33;5.40;;;17.60;83.00;;;;;;5090263;28;20470;-69
2023/05/25 07:22:56;;;;;;;10.20;5.63;;;17.70;83.20;;;;;;5072561;28;20445;-69
2023/05/25 07:25:23;;;;;;;7.37;4.73;;;17.80;82.20;;;;;;5072677;28;20526;-69
2023/05/25 07:27:53;;;;;;;7.57;5.20;;;17.90;82.20;;;;;;5072675;28;20475;-68
2023/05/25 07:30:20;;;;;;;6.20;4.57;;;17.80;81.60;;;;;;5072414;28;20801;-68
2023/05/25 07:32:47;;;;;;;6.07;4.20;;;17.80;80.20;;;;;;5072652;28;20539;-68
2023/05/25 07:35:16;;;;;;;5.87;4.13;;;17.80;80.40;;;;;;5072370;28;20467;-68
2023/05/25 07:37:42;;;;;;;7.10;4.70;;;17.80;80.70;;;;;;5072281;28;20534;-68
2023/05/25 07:40:10;;;;;;;8.13;5.17;;;17.80;82.00;;;;;;5072321;28;20475;-69
2023/05/25 07:42:37;;;;;;;7.80;5.50;;;17.90;82.20;;;;;;5072237;28;20435;-69
2023/05/25 07:45:05;;;;;;;9.43;5.07;;;18.20;81.10;;;;;;5072370;28;20443;-69
2023/05/25 07:47:32;;;;;;;6.37;4.60;;;18.40;81.20;;;;;;5072205;28;20522;-68
2023/05/25 07:49:59;;;;;;;10.73;5.20;;;18.50;80.30;;;;;;5089782;28;20458;-69
2023/05/25 07:52:27;;;;;;;7.30;5.40;;;18.60;79.00;;;;;;5090212;28;20561;-69
2023/05/25 07:54:54;;;;;;;7.00;4.90;;;18.60;77.70;;;;;;5090122;28;20467;-69
2023/05/25 07:57:20;;;;;;;6.20;4.90;;;18.60;77.40;;;;;;5090027;28;20522;-68
2023/05/25 07:59:47;;;;;;;5.30;4.67;;;18.70;77.90;;;;;;5072100;28;20555;-69
2023/05/25 08:02:14;;;;;;;6.97;4.83;;;18.70;78.40;;;;;;5072248;28;20467;-69
2023/05/25 08:04:41;;;;;;;7.67;4.30;;;18.80;77.80;;;;;;5072287;28;20479;-69
2023/05/25 08:07:08;;;;;;;6.37;5.07;;;18.80;77.70;;;;;;5072282;28;20471;-68
2023/05/25 08:09:36;;;;;;;8.03;4.57;;;18.90;76.90;;;;;;5089656;28;20839;-69
2023/05/25 08:12:04;;;;;;;7.63;4.97;;;19.20;77.40;;;;;;5089865;28;20603;-69
2023/05/25 08:14:31;;;;;;;6.03;4.90;;;19.40;76.40;;;;;;5089996;28;20959;-69
2023/05/25 08:16:57;;;;;;;4.87;4.00;;;19.50;74.60;;;;;;5089468;28;20905;-68
2023/05/25 08:19:24;;;;;;;5.50;3.87;;;19.70;73.60;;;;;;5089893;28;20518;-69
2023/05/25 08:21:52;;;;;;;4.80;3.37;;;19.80;72.80;;;;;;5089988;28;20486;-69
2023/05/25 08:24:19;;;;;;;5.33;4.27;;;20.00;72.00;;;;;;5090051;28;20447;-69
2023/05/25 08:26:49;;;;;;;5.57;3.60;;;20.20;70.30;;;;;;5091825;28;20928;-68
2023/05/25 08:29:20;;;;;;;5.47;3.73;;;20.40;70.30;;;;;;5075633;28;20432;-69
2023/05/25 08:31:48;;;;;;;5.63;4.63;;;20.40;70.10;;;;;;5075875;28;20487;-69
2023/05/25 08:34:15;;;;;;;4.70;3.67;;;20.50;68.90;;;;;;5075564;28;20433;-69
2023/05/25 08:36:43;;;;;;;5.53;4.30;;;20.50;70.40;;;;;;5075699;28;20444;-69
2023/05/25 08:39:10;;;;;;;4.80;4.00;;;20.50;67.10;;;;;;5075730;28;20447;-69
2023/05/25 08:41:41;;;;;;;6.80;4.40;;;20.50;68.60;;;;;;5075247;28;20475;-68
2023/05/25 08:44:10;;;;;;;6.70;5.33;;;20.50;67.40;;;;;;5075092;28;20991;-69
2023/05/25 08:46:37;;;;;;;6.33;5.03;;;20.60;68.90;;;;;;5075232;28;20432;-69
2023/05/25 08:49:08;;;;;;;5.30;4.17;;;20.60;70.30;;;;;;5075648;28;20569;-69
2023/05/25 08:51:37;;;;;;;5.67;4.40;;;20.80;68.60;;;;;;5075417;28;20566;-69
2023/05/25 08:54:08;;;;;;;9.00;3.50;;;21.00;67.50;;;;;;5075159;28;20439;-69
2023/05/25 08:56:41;;;;;;;7.17;4.70;;;21.30;66.40;;;;;;5075218;28;20435;-69
2023/05/25 08:59:23;;;;;;;7.30;4.90;;;21.60;67.00;;;;;;5075112;28;20475;-69
2023/05/25 09:01:56;;;;;;;8.70;5.67;;;21.80;66.50;;;;;;5075276;28;20514;-69
2023/05/25 09:04:23;;;;;;;9.07;5.53;;;22.20;67.00;;;;;;5075158;28;20518;-69
2023/05/25 09:06:50;;;;;;;7.60;5.53;;;22.70;67.30;;;;;;5075229;28;20436;-69
2023/05/25 09:09:18;;;;;;;5.90;4.80;;;23.00;64.40;;;;;;5074800;28;21010;-69
2023/05/25 09:11:45;;;;;;;7.73;6.37;;;23.20;61.60;;;;;;5074942;28;20880;-69
2023/05/25 09:14:14;;;;;;;6.90;5.00;;;23.20;60.20;;;;;;5092793;28;20455;-69
2023/05/25 09:16:41;;;;;;;7.40;5.40;;;23.30;60.80;;;;;;5092772;28;20462;-69
2023/05/25 09:19:08;;;;;;;9.70;5.40;;;23.30;59.10;;;;;;5092738;28;20644;-69
2023/05/25 09:21:35;;;;;;;6.17;4.80;;;23.30;59.70;;;;;;5092707;28;20443;-69
2023/05/25 09:24:03;;;;;;;8.23;5.47;;;23.40;60.50;;;;;;5074637;28;20431;-69
2023/05/25 09:26:30;;;;;;;5.70;4.37;;;23.70;59.80;;;;;;5074966;28;20509;-69
2023/05/25 09:28:57;;;;;;;7.10;5.07;;;24.00;59.30;;;;;;5074723;28;20528;-69
2023/05/25 09:31:25;;;;;;;4.70;3.87;;;24.10;55.50;;;;;;5074575;28;20566;-69
2023/05/25 09:33:58;;;;;;;5.37;4.33;;;24.10;56.90;;;;;;5074643;28;20518;-69
2023/05/25 09:36:26;;;;;;;6.07;4.37;;;24.10;56.50;;;;;;5074501;28;20944;-69
2023/05/25 09:38:53;;;;;;;7.83;5.67;;;24.30;57.10;;;;;;5074532;28;20470;-69
2023/05/25 09:41:20;;;;;;;5.37;4.83;;;24.30;56.40;;;;;;5074598;28;20459;-69
2023/05/25 09:43:47;;;;;;;7.23;5.80;;;24.60;58.40;;;;;;5074391;28;20447;-69
2023/05/25 09:46:20;;;;;;;9.90;5.33;;;24.80;55.80;;;;;;5074580;28;20436;-69
2023/05/25 09:48:50;;;;;;;9.90;5.83;;;24.90;55.30;;;;;;5073931;28;20468;-69
2023/05/25 09:51:17;;;;;;;6.80;4.97;;;25.10;55.80;;;;;;5074454;28;20439;-69
2023/05/25 09:53:47;;;;;;;9.47;5.97;;;25.20;55.50;;;;;;5074531;28;20543;-69
2023/05/25 09:56:16;;;;;;;6.43;5.73;;;25.10;55.00;;;;;;5074266;28;20535;-69
2023/05/25 09:58:43;;;;;;;7.27;5.30;;;25.20;54.50;;;;;;5074242;28;20447;-69
2023/05/25 10:01:09;;;;;;;8.23;5.57;;;25.20;54.20;;;;;;5074205;28;20547;-69
2023/05/25 10:03:45;;;;;;;4.93;4.23;;;25.30;54.60;;;;;;5074233;28;20468;-69
2023/05/25 10:06:14;;;;;;;7.13;6.20;;;25.40;54.40;;;;;;5075100;28;20440;-69
2023/05/25 10:08:43;;;;;;;8.93;6.40;;;25.30;53.90;;;;;;5073852;28;20450;-69
2023/05/25 10:11:13;;;;;;;8.27;7.03;;;25.20;53.90;;;;;;5073675;28;20472;-69
2023/05/25 10:13:40;;;;;;;7.70;5.77;;;25.20;53.70;;;;;;5073867;28;20431;-69
2023/05/25 10:16:11;;;;;;;8.90;6.53;;;25.10;53.20;;;;;;5073434;28;20927;-69
2023/05/25 10:18:43;;;;;;;8.70;6.27;;;24.90;53.30;;;;;;5073745;28;20432;-69
2023/05/25 10:21:17;;;;;;;7.03;6.00;;;25.00;55.70;;;;;;5073722;28;20779;-69
2023/05/25 10:23:46;;;;;;;6.23;5.53;;;25.20;56.30;;;;;;5073796;28;20429;-69
2023/05/25 10:26:18;;;;;;;10.07;4.73;;;25.40;54.40;;;;;;5073641;28;20468;-69
2023/05/25 10:28:47;;;;;;;10.90;6.90;;;25.50;54.60;;;;;;5073826;28;20468;-69
2023/05/25 10:31:16;;;;;;;8.63;6.90;;;25.40;53.20;;;;;;5073630;28;20491;-69
2023/05/25 10:33:48;;;;;;;9.77;7.17;;;25.30;53.30;;;;;;5073469;28;20483;-69
2023/05/25 10:36:19;;;;;;;7.50;6.53;;;25.30;54.00;;;;;;5073059;28;20469;-69
2023/05/25 10:38:47;;;;;;;9.70;6.83;;;25.50;53.80;;;;;;5074681;28;20460;-69
2023/05/25 10:41:15;;;;;;;9.63;7.53;;;25.70;54.20;;;;;;5090656;28;20934;-69
2023/05/25 10:43:43;;;;;;;8.80;7.60;;;26.00;53.00;;;;;;5091032;28;20474;-69
2023/05/25 10:46:11;;;;;;;13.37;8.13;;;26.00;54.10;;;;;;5091325;28;20526;-69
2023/05/25 10:48:40;;;;;;;9.70;7.30;;;25.90;52.00;;;;;;5089973;28;20509;-69
2023/05/25 10:51:13;;;;;;;9.10;7.63;;;25.80;51.60;;;;;;5090909;28;20463;-69
2023/05/25 10:53:44;;;;;;;13.13;7.50;;;25.80;53.70;;;;;;5091178;28;20610;-67
2023/05/25 10:56:12;;;;;;;10.03;7.37;;;25.90;52.00;;;;;;5090160;28;20758;-67
2023/05/25 10:58:42;;;;;;;9.97;8.87;;;26.00;52.50;;;;;;5091062;28;20442;-67
2023/05/25 11:01:11;;;;;;;11.10;8.10;;;26.20;53.30;;;;;;5091039;28;20466;-68
2023/05/25 11:04:13;;;;;;;10.00;9.00;;;26.30;54.30;;;;;;5090548;28;20455;-68
2023/05/25 11:07:12;;;;;;;10.00;9.00;;;26.40;52.10;;;;;;5072938;28;20512;-68
2023/05/25 11:09:43;;;;;;;9.57;8.10;;;26.30;51.90;;;;;;5072884;28;20494;-68
2023/05/25 11:12:21;;;;;;;9.63;7.00;;;26.30;52.70;;;;;;5072531;28;20479;-67
2023/05/25 11:15:09;;;;;;;11.17;7.50;;;26.50;51.60;;;;;;5072828;28;20432;-68
2023/05/25 11:17:45;;;;;;;9.30;7.70;;;26.60;50.20;;;;;;5090306;28;20459;-68
2023/05/25 11:20:23;;;;;;;12.43;9.03;;;26.80;49.40;;;;;;5090255;28;20446;-68
2023/05/25 11:22:53;;;;;;;10.60;6.90;;;26.80;49.80;;;;;;5072668;28;20527;-68
2023/05/25 11:25:39;;;;;;;10.27;7.77;;;26.90;48.80;;;;;;5072675;28;20444;-68
2023/05/25 11:28:07;;;;;;;8.60;6.90;;;26.90;49.00;;;;;;5072583;28;20471;-68
2023/05/25 11:30:35;;;;;;;10.10;8.53;;;27.00;49.60;;;;;;5072486;28;20441;-67
2023/05/25 11:33:06;;;;;;;9.17;8.00;;;26.90;48.30;;;;;;5072398;28;21065;-67
2023/05/25 11:35:35;;;;;;;14.13;8.37;;;26.80;48.20;;;;;;5072210;28;20428;-67
2023/05/25 11:38:07;;;;;;;8.77;7.20;;;26.80;48.60;;;;;;5072495;28;20966;-68
2023/05/25 11:40:34;;;;;;;10.30;7.17;;;26.90;49.40;;;;;;5072259;28;20435;-68
2023/05/25 11:43:02;;;;;;;8.87;7.40;;;26.90;49.10;;;;;;5072440;28;20440;-68
2023/05/25 11:45:32;;;;;;;9.10;7.50;;;27.00;49.20;;;;;;5079161;28;22432;-67
2023/05/25 11:48:00;;;;;;;9.90;7.07;;;27.20;48.80;;;;;;5090309;28;20442;-67
2023/05/25 11:50:32;;;;;;;8.53;7.67;;;27.20;49.00;;;;;;5090168;28;20428;-68
2023/05/25 11:52:58;;;;;;;8.57;7.63;;;27.20;49.60;;;;;;5090062;28;20480;-68
2023/05/25 11:55:25;;;;;;;10.93;6.73;;;27.20;47.50;;;;;;5089961;28;20531;-68
2023/05/25 11:57:57;;;;;;;11.17;7.33;;;27.10;47.40;;;;;;5089446;28;20427;-68
2023/05/25 12:00:27;;;;;;;9.43;8.10;;;27.10;48.60;;;;;;5089257;28;20442;-68
2023/05/25 12:02:54;;;;;;;9.73;8.43;;;27.10;48.10;;;;;;5090315;28;20442;-68
2023/05/25 12:05:26;;;;;;;8.97;7.00;;;27.00;47.70;;;;;;5089393;28;20842;-68
2023/05/25 12:07:53;;;;;;;9.43;7.87;;;26.90;47.70;;;;;;5090162;28;20848;-68
2023/05/25 12:10:20;;;;;;;11.97;7.77;;;26.90;48.90;;;;;;5089837;28;20466;-68
2023/05/25 12:12:48;;;;;;;9.03;8.13;;;26.90;48.90;;;;;;5089757;28;20490;-68
2023/05/25 12:15:16;;;;;;;9.80;7.73;;;26.80;47.90;;;;;;5071863;28;20432;-68
2023/05/25 12:17:45;;;;;;;10.10;8.30;;;26.80;48.90;;;;;;5071407;28;20504;-68
2023/05/25 12:20:14;;;;;;;13.20;9.93;;;26.70;48.40;;;;;;5072306;28;20542;-68
2023/05/25 12:22:41;;;;;;;8.47;7.67;;;26.60;48.40;;;;;;5089220;28;20793;-68
2023/05/25 12:25:12;;;;;;;10.93;8.43;;;26.50;48.40;;;;;;5089655;28;20465;-68
2023/05/25 12:27:40;;;;;;;11.37;9.20;;;26.40;49.20;;;;;;5089623;28;20466;-68
2023/05/25 12:30:09;;;;;;;10.33;8.57;;;26.30;49.90;;;;;;5089025;28;20469;-68
2023/05/25 12:32:54;;;;;;;10.80;7.70;;;26.30;50.50;;;;;;5089707;28;20482;-68
2023/05/25 12:35:21;;;;;;;9.53;7.90;;;26.20;49.00;;;;;;5089222;28;20787;-68
2023/05/25 12:37:48;;;;;;;7.80;6.90;;;26.00;49.20;;;;;;5089911;28;20905;-68
2023/05/25 12:40:27;;;;;;;10.43;6.50;;;26.00;50.50;;;;;;5089849;28;20470;-68
2023/05/25 12:42:57;;;;;;;8.13;7.27;;;26.10;50.00;;;;;;5089228;28;20434;-68
2023/05/25 12:45:29;;;;;;;9.90;8.60;;;25.90;50.50;;;;;;5089813;28;20443;-68
2023/05/25 12:47:57;;;;;;;8.90;7.23;;;25.90;51.00;;;;;;5089232;28;20553;-68
2023/05/25 12:50:24;;;;;;;7.40;6.67;;;25.70;51.10;;;;;;5071911;28;20468;-68